createdAt,value
2022-08-19T00:00:11.886Z,20.61
2022-08-19T00:03:00.117Z,20.54
2022-08-19T00:05:28.391Z,20.49
2022-08-19T00:07:56.666Z,20.41
2022-08-19T00:10:25.576Z,20.32
2022-08-19T00:12:53.943Z,20.24
2022-08-19T00:15:23.639Z,20.18
2022-08-19T00:17:51.931Z,20.13
2022-08-19T00:20:22.905Z,20.12
2022-08-19T00:22:51.418Z,20.16
2022-08-19T00:25:29.862Z,20.23
2022-08-19T00:28:00.599Z,20.25
2022-08-19T00:30:29.543Z,20.20
2022-08-19T00:32:58.809Z,20.13
2022-08-19T00:35:28.490Z,20.05
2022-08-19T00:37:57.297Z,19.98
2022-08-19T00:40:26.680Z,19.90
2022-08-19T00:42:55.069Z,19.84
2022-08-19T00:45:27.061Z,19.80
2022-08-19T00:47:55.354Z,19.75
2022-08-19T00:50:24.238Z,19.72
2022-08-19T00:52:53.780Z,19.70
2022-08-19T00:55:26.246Z,19.68
2022-08-19T00:57:59.302Z,19.65
2022-08-19T01:00:30.078Z,19.61
2022-08-19T01:02:58.797Z,19.57
2022-08-19T01:05:29.935Z,19.54
2022-08-19T01:08:02.108Z,19.51
2022-08-19T01:10:36.646Z,19.46
2022-08-19T01:13:06.116Z,19.43
2022-08-19T01:15:41.259Z,19.40
2022-08-19T01:18:12.817Z,19.39
2022-08-19T01:20:43.089Z,19.36
2022-08-19T01:23:11.914Z,19.34
2022-08-19T01:25:52.419Z,19.32
2022-08-19T01:28:34.068Z,19.29
2022-08-19T01:31:27.009Z,19.26
2022-08-19T01:33:58.514Z,19.22
2022-08-19T01:36:42.939Z,19.18
2022-08-19T01:39:14.422Z,19.14
2022-08-19T01:41:42.943Z,19.10
2022-08-19T01:44:17.884Z,19.06
2022-08-19T01:46:49.348Z,19.01
2022-08-19T01:49:22.993Z,18.98
2022-08-19T01:51:51.861Z,18.93
2022-08-19T01:54:27.566Z,18.90
2022-08-19T01:57:04.759Z,18.86
2022-08-19T01:59:34.201Z,18.84
2022-08-19T02:02:02.821Z,18.80
2022-08-19T02:04:31.424Z,18.75
2022-08-19T02:06:59.823Z,18.71
2022-08-19T02:09:28.110Z,18.68
2022-08-19T02:11:56.891Z,18.66
2022-08-19T02:14:25.264Z,18.62
2022-08-19T02:16:53.559Z,18.59
2022-08-19T02:19:21.790Z,18.56
2022-08-19T02:21:50.218Z,18.53
2022-08-19T02:24:18.517Z,18.51
2022-08-19T02:26:46.796Z,18.50
2022-08-19T02:29:15.133Z,18.48
2022-08-19T02:31:43.441Z,18.47
2022-08-19T02:34:11.658Z,18.45
2022-08-19T02:36:42.566Z,18.41
2022-08-19T02:39:11.569Z,18.39
2022-08-19T02:41:39.794Z,18.36
2022-08-19T02:44:28.524Z,18.34
2022-08-19T02:46:56.561Z,18.32
2022-08-19T02:49:24.895Z,18.30
2022-08-19T02:51:53.130Z,18.29
2022-08-19T02:54:21.435Z,18.26
2022-08-19T02:56:49.650Z,18.24
2022-08-19T02:59:17.838Z,18.22
2022-08-19T03:01:49.462Z,18.21
2022-08-19T03:04:17.748Z,18.18
2022-08-19T03:06:48.105Z,18.17
2022-08-19T03:09:17.878Z,18.15
2022-08-19T03:11:46.523Z,18.14
2022-08-19T03:14:17.980Z,18.12
2022-08-19T03:16:51.295Z,18.09
2022-08-19T03:19:22.351Z,18.07
2022-08-19T03:21:51.555Z,18.06
2022-08-19T03:24:21.324Z,18.05
2022-08-19T03:26:52.977Z,18.03
2022-08-19T03:29:30.347Z,18.03
2022-08-19T03:32:02.172Z,18.01
2022-08-19T03:34:37.375Z,18.00
2022-08-19T03:37:13.451Z,17.97
2022-08-19T03:39:43.409Z,17.95
2022-08-19T03:42:38.765Z,17.93
2022-08-19T03:45:00.981Z,17.91
2022-08-19T03:47:29.271Z,17.90
2022-08-19T03:49:57.570Z,17.89
2022-08-19T03:52:25.860Z,17.88
2022-08-19T03:54:54.184Z,17.88
2022-08-19T03:57:27.853Z,17.88
2022-08-19T04:00:12.577Z,17.89
2022-08-19T04:02:58.220Z,17.91
2022-08-19T04:05:30.240Z,17.92
2022-08-19T04:08:00.465Z,17.94
2022-08-19T04:10:29.778Z,17.96
2022-08-19T04:12:58.158Z,17.98
2022-08-19T04:15:27.008Z,18.02
2022-08-19T04:17:55.894Z,18.06
2022-08-19T04:20:24.251Z,18.12
2022-08-19T04:22:52.763Z,18.16
2022-08-19T04:25:21.329Z,18.20
2022-08-19T04:27:49.599Z,18.24
2022-08-19T04:30:18.912Z,18.29
2022-08-19T04:32:47.245Z,18.33
2022-08-19T04:35:16.796Z,18.39
2022-08-19T04:37:46.905Z,18.46
2022-08-19T04:40:34.150Z,18.52
2022-08-19T04:43:02.526Z,18.59
2022-08-19T04:45:39.609Z,18.66
2022-08-19T04:48:26.646Z,18.73
2022-08-19T04:50:59.399Z,18.81
2022-08-19T04:53:37.862Z,18.87
2022-08-19T04:56:12.884Z,18.93
2022-08-19T04:58:43.788Z,18.99
2022-08-19T05:01:19.385Z,19.07
2022-08-19T05:03:48.510Z,19.16
2022-08-19T05:06:19.065Z,19.25
2022-08-19T05:08:47.516Z,19.34
2022-08-19T05:11:15.718Z,19.44
2022-08-19T05:13:45.451Z,19.54
2022-08-19T05:16:14.327Z,19.66
2022-08-19T05:19:01.554Z,19.79
2022-08-19T05:21:49.270Z,19.94
2022-08-19T05:24:19.803Z,20.10
2022-08-19T05:26:50.649Z,20.23
2022-08-19T05:29:21.370Z,20.36
2022-08-19T05:31:51.653Z,20.49
2022-08-19T05:34:23.332Z,20.61
2022-08-19T05:36:58.155Z,20.69
2022-08-19T05:39:29.780Z,20.80
2022-08-19T05:42:00.670Z,20.93
2022-08-19T05:44:32.517Z,21.05
2022-08-19T05:47:03.396Z,21.18
2022-08-19T05:49:33.306Z,21.32
2022-08-19T05:52:11.984Z,21.43
2022-08-19T05:54:42.705Z,21.58
2022-08-19T05:57:11.756Z,21.74
2022-08-19T05:59:43.243Z,21.84
2022-08-19T06:02:11.797Z,21.96
2022-08-19T06:04:40.523Z,22.10
2022-08-19T06:07:12.330Z,22.23
2022-08-19T06:09:43.583Z,22.35
2022-08-19T06:12:12.239Z,22.47
2022-08-19T06:14:42.604Z,22.60
2022-08-19T06:17:11.064Z,22.71
2022-08-19T06:19:41.082Z,22.83
2022-08-19T06:22:09.526Z,22.95
2022-08-19T06:24:37.790Z,23.10
2022-08-19T06:27:09.113Z,23.23
2022-08-19T06:29:39.581Z,23.36
2022-08-19T06:32:07.869Z,23.47
2022-08-19T06:34:36.331Z,23.60
2022-08-19T06:37:06.769Z,23.74
2022-08-19T06:39:39.780Z,23.86
2022-08-19T06:42:11.157Z,23.99
2022-08-19T06:44:43.285Z,24.13
2022-08-19T06:47:23.542Z,24.28
2022-08-19T06:50:03.731Z,24.43
2022-08-19T06:52:36.781Z,24.58
2022-08-19T06:55:07.472Z,24.74
2022-08-19T06:57:35.777Z,24.87
2022-08-19T07:00:09.721Z,25.02
2022-08-19T07:02:48.095Z,25.19
2022-08-19T07:05:23.978Z,25.41
2022-08-19T07:07:52.358Z,25.62
2022-08-19T07:10:20.962Z,25.82
2022-08-19T07:12:51.298Z,25.97
2022-08-19T07:15:22.503Z,26.10
2022-08-19T07:17:52.640Z,26.24
2022-08-19T07:20:21.482Z,26.42
2022-08-19T07:22:50.582Z,26.61
2022-08-19T07:25:22.020Z,26.82
2022-08-19T07:28:01.485Z,26.99
2022-08-19T07:30:30.468Z,27.11
2022-08-19T07:32:59.892Z,27.26
2022-08-19T07:35:33.360Z,27.43
2022-08-19T07:38:03.761Z,27.59
2022-08-19T07:40:32.090Z,27.72
2022-08-19T07:43:00.778Z,27.85
2022-08-19T07:45:29.732Z,27.98
2022-08-19T07:47:58.979Z,28.13
2022-08-19T07:50:27.887Z,28.26
2022-08-19T07:52:56.304Z,28.43
2022-08-19T07:55:40.310Z,28.55
2022-08-19T07:58:15.577Z,28.71
2022-08-19T08:00:47.082Z,28.83
2022-08-19T08:03:18.502Z,28.93
2022-08-19T08:06:05.886Z,29.06
2022-08-19T08:08:53.106Z,29.25
2022-08-19T08:11:23.864Z,29.43
2022-08-19T08:14:00.733Z,29.57
2022-08-19T08:16:39.477Z,29.72
2022-08-19T08:19:20.472Z,29.82
2022-08-19T08:21:56.715Z,29.98
2022-08-19T08:24:28.385Z,30.10
2022-08-19T08:27:00.091Z,30.16
2022-08-19T08:29:34.940Z,30.25
2022-08-19T08:32:14.066Z,30.36
2022-08-19T08:34:44.184Z,30.57
2022-08-19T08:37:12.536Z,30.81
2022-08-19T08:39:44.831Z,30.97
2022-08-19T08:42:33.716Z,31.15
2022-08-19T08:45:08.090Z,31.27
2022-08-19T08:47:42.057Z,31.33
2022-08-19T08:50:20.484Z,31.42
2022-08-19T08:52:53.669Z,31.55
2022-08-19T08:55:25.938Z,31.68
2022-08-19T08:58:01.053Z,31.84
2022-08-19T09:00:35.265Z,32.01
2022-08-19T09:03:07.035Z,32.21
2022-08-19T09:06:12.155Z,32.29
2022-08-19T09:09:11.768Z,32.26
2022-08-19T09:12:18.944Z,32.09
2022-08-19T09:14:55.368Z,31.95
2022-08-19T09:17:32.265Z,31.94
2022-08-19T09:20:14.300Z,31.98
2022-08-19T09:22:45.416Z,31.97
2022-08-19T09:25:17.570Z,31.91
2022-08-19T09:27:55.485Z,31.99
2022-08-19T09:30:34.957Z,32.10
2022-08-19T09:33:03.404Z,32.14
2022-08-19T09:35:32.301Z,32.23
2022-08-19T09:38:18.600Z,32.47
2022-08-19T09:40:46.920Z,32.66
2022-08-19T09:43:15.062Z,32.78
2022-08-19T09:46:02.467Z,32.94
2022-08-19T09:48:30.527Z,33.04
2022-08-19T09:51:07.670Z,33.10
2022-08-19T09:53:40.256Z,33.15
2022-08-19T09:56:09.418Z,33.19
2022-08-19T09:58:38.715Z,33.36
2022-08-19T10:01:08.189Z,33.43
2022-08-19T10:03:37.421Z,33.49
2022-08-19T10:06:14.803Z,33.55
2022-08-19T10:08:50.455Z,33.60
2022-08-19T10:11:27.860Z,33.66
2022-08-19T10:14:06.851Z,33.74
2022-08-19T10:16:39.604Z,33.86
2022-08-19T10:19:08.140Z,33.99
2022-08-19T10:21:36.946Z,34.10
2022-08-19T10:24:06.357Z,34.14
2022-08-19T10:26:38.126Z,34.21
2022-08-19T10:29:09.217Z,34.28
2022-08-19T10:32:00.858Z,34.39
2022-08-19T10:34:28.217Z,34.40
2022-08-19T10:37:00.599Z,34.38
2022-08-19T10:39:43.077Z,34.46
2022-08-19T10:42:14.087Z,34.54
2022-08-19T10:44:42.768Z,34.64
2022-08-19T10:47:21.972Z,34.82
2022-08-19T10:50:13.801Z,34.97
2022-08-19T10:52:49.836Z,34.99
2022-08-19T10:55:51.344Z,35.00
2022-08-19T10:58:23.591Z,35.09
2022-08-19T11:00:57.371Z,35.08
2022-08-19T11:03:28.856Z,35.08
2022-08-19T11:06:06.449Z,35.09
2022-08-19T11:08:37.893Z,35.07
2022-08-19T11:11:08.167Z,35.04
2022-08-19T11:13:40.532Z,34.94
2022-08-19T11:16:14.437Z,34.86
2022-08-19T11:18:47.911Z,34.93
2022-08-19T11:21:29.412Z,35.15
2022-08-19T11:24:00.081Z,35.27
2022-08-19T11:26:30.444Z,35.23
2022-08-19T11:28:59.843Z,35.19
2022-08-19T11:31:31.836Z,35.08
2022-08-19T11:34:02.608Z,35.01
2022-08-19T11:36:32.468Z,35.00
2022-08-19T11:39:01.832Z,35.05
2022-08-19T11:41:29.956Z,35.13
2022-08-19T11:43:58.272Z,35.23
2022-08-19T11:46:30.467Z,35.26
2022-08-19T11:49:01.528Z,35.28
2022-08-19T11:51:30.712Z,35.19
2022-08-19T11:54:00.513Z,35.17
2022-08-19T11:56:29.493Z,35.21
2022-08-19T11:58:58.088Z,35.29
2022-08-19T12:01:27.738Z,35.34
2022-08-19T12:03:57.623Z,35.40
2022-08-19T12:06:32.751Z,35.49
2022-08-19T12:09:05.856Z,35.50
2022-08-19T12:11:34.417Z,35.50
2022-08-19T12:14:03.072Z,35.53
2022-08-19T12:16:33.851Z,35.71
2022-08-19T12:19:05.561Z,35.82
2022-08-19T12:21:36.480Z,35.87
2022-08-19T12:24:06.841Z,35.92
2022-08-19T12:26:35.841Z,35.89
2022-08-19T12:29:24.370Z,35.83
2022-08-19T12:32:02.302Z,35.74
2022-08-19T12:34:33.829Z,35.75
2022-08-19T12:37:04.159Z,35.64
2022-08-19T12:39:42.877Z,35.62
2022-08-19T12:42:14.663Z,35.67
2022-08-19T12:44:43.707Z,35.79
2022-08-19T12:47:15.413Z,35.79
2022-08-19T12:49:53.548Z,35.77
2022-08-19T12:52:26.227Z,35.67
2022-08-19T12:54:59.002Z,35.58
2022-08-19T12:57:32.431Z,35.66
2022-08-19T13:00:10.090Z,35.84
2022-08-19T13:02:47.842Z,35.93
2022-08-19T13:05:21.079Z,36.00
2022-08-19T13:07:51.111Z,36.06
2022-08-19T13:10:21.504Z,36.10
2022-08-19T13:12:51.681Z,36.10
2022-08-19T13:15:23.834Z,36.09
2022-08-19T13:17:54.897Z,36.06
2022-08-19T13:20:24.811Z,35.94
2022-08-19T13:22:54.548Z,35.80
2022-08-19T13:25:22.763Z,35.67
2022-08-19T13:27:51.893Z,35.61
2022-08-19T13:30:39.610Z,35.65
2022-08-19T13:33:17.700Z,35.58
2022-08-19T13:35:49.537Z,35.53
2022-08-19T13:38:21.568Z,35.57
2022-08-19T13:40:53.038Z,35.54
2022-08-19T13:43:24.344Z,35.56
2022-08-19T13:45:57.249Z,35.56
2022-08-19T13:48:29.897Z,35.58
2022-08-19T13:50:58.080Z,35.55
2022-08-19T13:53:26.319Z,35.45
2022-08-19T13:55:54.989Z,35.32
2022-08-19T13:58:23.718Z,35.28
2022-08-19T14:00:52.428Z,35.24
2022-08-19T14:03:20.842Z,35.19
2022-08-19T14:05:49.052Z,35.10
2022-08-19T14:08:17.784Z,35.03
2022-08-19T14:10:46.475Z,34.95
2022-08-19T14:13:17.419Z,34.84
2022-08-19T14:15:46.617Z,34.76
2022-08-19T14:18:16.993Z,34.63
2022-08-19T14:20:45.523Z,34.49
2022-08-19T14:23:14.773Z,34.34
2022-08-19T14:25:43.968Z,34.22
2022-08-19T14:28:12.101Z,34.05
2022-08-19T14:30:40.334Z,33.91
2022-08-19T14:33:09.536Z,33.77
2022-08-19T14:35:38.119Z,33.67
2022-08-19T14:38:07.704Z,33.59
2022-08-19T14:40:35.985Z,33.50
2022-08-19T14:43:05.519Z,33.46
2022-08-19T14:45:37.152Z,33.38
2022-08-19T14:48:08.138Z,33.27
2022-08-19T14:50:46.363Z,33.16
2022-08-19T14:53:16.751Z,33.07
2022-08-19T14:55:47.207Z,32.98
2022-08-19T14:58:29.042Z,32.88
2022-08-19T15:01:02.479Z,32.77
2022-08-19T15:03:33.012Z,32.70
2022-08-19T15:06:03.824Z,32.65
2022-08-19T15:08:35.079Z,32.58
2022-08-19T15:11:04.131Z,32.52
2022-08-19T15:13:32.307Z,32.45
2022-08-19T15:16:04.347Z,32.39
2022-08-19T15:18:33.621Z,32.34
2022-08-19T15:21:02.627Z,32.30
2022-08-19T15:23:31.063Z,32.26
2022-08-19T15:25:59.247Z,32.19
2022-08-19T15:28:27.495Z,32.07
2022-08-19T15:30:55.576Z,31.96
2022-08-19T15:33:23.914Z,31.81
2022-08-19T15:35:52.086Z,31.68
2022-08-19T15:38:22.361Z,31.56
2022-08-19T15:40:51.403Z,31.43
2022-08-19T15:43:23.784Z,31.31
2022-08-19T15:45:51.981Z,31.19
2022-08-19T15:48:20.083Z,31.05
2022-08-19T15:50:48.152Z,30.93
2022-08-19T15:53:16.287Z,30.82
2022-08-19T15:55:46.096Z,30.70
2022-08-19T15:58:34.352Z,30.60
2022-08-19T16:01:26.875Z,30.46
2022-08-19T16:04:15.647Z,30.34
2022-08-19T16:06:54.241Z,30.20
2022-08-19T16:09:29.039Z,30.06
2022-08-19T16:12:02.144Z,29.95
2022-08-19T16:14:33.563Z,29.85
2022-08-19T16:17:02.631Z,29.74
2022-08-19T16:19:32.596Z,29.64
2022-08-19T16:22:00.815Z,29.53
2022-08-19T16:24:29.332Z,29.44
2022-08-19T16:26:57.426Z,29.34
2022-08-19T16:29:33.923Z,29.25
2022-08-19T16:32:06.408Z,29.14
2022-08-19T16:34:34.629Z,29.04
2022-08-19T16:37:03.291Z,28.97
2022-08-19T16:39:31.578Z,28.91
2022-08-19T16:41:59.988Z,28.84
2022-08-19T16:44:29.879Z,28.77
2022-08-19T16:46:59.758Z,28.72
2022-08-19T16:49:53.210Z,28.67
2022-08-19T16:52:19.932Z,28.59
2022-08-19T16:54:48.907Z,28.52
2022-08-19T16:57:17.047Z,28.47
2022-08-19T16:59:48.874Z,28.43
2022-08-19T17:02:19.356Z,28.38
2022-08-19T17:04:57.284Z,28.34
2022-08-19T17:07:29.433Z,28.30
2022-08-19T17:10:04.774Z,28.25
2022-08-19T17:12:33.215Z,28.18
2022-08-19T17:15:02.821Z,28.10
2022-08-19T17:17:31.978Z,28.03
2022-08-19T17:20:02.293Z,27.96
2022-08-19T17:22:30.504Z,27.87
2022-08-19T17:24:58.749Z,27.77
2022-08-19T17:27:31.321Z,27.71
2022-08-19T17:30:03.011Z,27.63
2022-08-19T17:32:35.247Z,27.55
2022-08-19T17:35:04.237Z,27.46
2022-08-19T17:37:33.661Z,27.39
2022-08-19T17:40:05.056Z,27.32
2022-08-19T17:42:33.773Z,27.25
2022-08-19T17:45:02.332Z,27.19
2022-08-19T17:47:31.416Z,27.16
2022-08-19T17:49:59.956Z,27.14
2022-08-19T17:52:28.184Z,27.12
2022-08-19T17:54:56.580Z,27.07
2022-08-19T17:57:25.085Z,26.98
2022-08-19T17:59:53.939Z,26.85
2022-08-19T18:02:22.439Z,26.74
2022-08-19T18:04:51.039Z,26.64
2022-08-19T18:07:21.683Z,26.55
2022-08-19T18:09:52.607Z,26.46
2022-08-19T18:12:24.765Z,26.36
2022-08-19T18:14:52.916Z,26.30
2022-08-19T18:17:23.457Z,26.22
2022-08-19T18:19:51.705Z,26.15
2022-08-19T18:22:31.399Z,26.08
2022-08-19T18:25:02.100Z,25.99
2022-08-19T18:27:31.207Z,25.94
2022-08-19T18:30:00.101Z,25.87
2022-08-19T18:32:34.146Z,25.79
2022-08-19T18:35:05.855Z,25.69
2022-08-19T18:37:33.963Z,25.60
2022-08-19T18:40:20.855Z,25.51
2022-08-19T18:43:07.996Z,25.41
2022-08-19T18:45:54.923Z,25.30
2022-08-19T18:48:42.010Z,25.22
2022-08-19T18:51:11.988Z,25.14
2022-08-19T18:53:42.835Z,25.09
2022-08-19T18:56:14.290Z,25.06
2022-08-19T18:58:43.812Z,25.01
2022-08-19T19:01:21.969Z,24.97
2022-08-19T19:03:53.570Z,24.93
2022-08-19T19:06:29.827Z,24.99
2022-08-19T19:08:58.240Z,25.02
2022-08-19T19:11:34.000Z,24.97
2022-08-19T19:14:05.704Z,24.92
2022-08-19T19:16:34.247Z,24.92
2022-08-19T19:19:03.075Z,24.95
2022-08-19T19:21:34.484Z,25.02
2022-08-19T19:24:03.715Z,25.08
2022-08-19T19:26:32.210Z,25.14
2022-08-19T19:29:00.564Z,25.20
2022-08-19T19:31:29.300Z,25.21
2022-08-19T19:33:58.107Z,25.15
2022-08-19T19:36:26.775Z,25.06
2022-08-19T19:38:55.605Z,25.00
2022-08-19T19:41:24.695Z,24.92
2022-08-19T19:44:29.808Z,24.86
2022-08-19T19:46:49.700Z,24.80
2022-08-19T19:49:18.137Z,24.74
2022-08-19T19:51:46.676Z,24.70
2022-08-19T19:54:15.115Z,24.64
2022-08-19T19:56:45.126Z,24.58
2022-08-19T19:59:13.643Z,24.51
2022-08-19T20:01:46.064Z,24.42
2022-08-19T20:04:16.970Z,24.34
2022-08-19T20:06:46.831Z,24.27
2022-08-19T20:09:19.894Z,24.23
2022-08-19T20:11:55.038Z,24.22
2022-08-19T20:14:26.988Z,24.25
2022-08-19T20:16:56.404Z,24.32
2022-08-19T20:19:37.274Z,24.37
2022-08-19T20:22:06.731Z,24.38
2022-08-19T20:24:36.376Z,24.41
2022-08-19T20:27:05.553Z,24.43
2022-08-19T20:29:39.287Z,24.46
2022-08-19T20:32:10.683Z,24.47
2022-08-19T20:34:40.605Z,24.43
2022-08-19T20:37:11.513Z,24.36
2022-08-19T20:39:39.709Z,24.30
2022-08-19T20:42:07.907Z,24.21
2022-08-19T20:44:37.223Z,24.12
2022-08-19T20:47:05.644Z,24.04
2022-08-19T20:49:35.420Z,23.96
2022-08-19T20:52:05.153Z,23.89
2022-08-19T20:54:33.628Z,23.84
2022-08-19T20:57:03.875Z,23.81
2022-08-19T20:59:32.005Z,23.79
2022-08-19T21:02:00.179Z,23.77
2022-08-19T21:04:28.288Z,23.74
2022-08-19T21:06:56.531Z,23.72
2022-08-19T21:09:24.853Z,23.69
2022-08-19T21:11:53.686Z,23.66
2022-08-19T21:14:22.806Z,23.63
2022-08-19T21:16:51.063Z,23.59
2022-08-19T21:19:23.715Z,23.55
2022-08-19T21:21:52.678Z,23.50
2022-08-19T21:24:21.374Z,23.46
2022-08-19T21:26:54.617Z,23.42
2022-08-19T21:29:23.284Z,23.36
2022-08-19T21:31:52.099Z,23.30
2022-08-19T21:34:20.393Z,23.25
2022-08-19T21:36:48.644Z,23.18
2022-08-19T21:39:16.817Z,23.12
2022-08-19T21:41:45.038Z,23.07
2022-08-19T21:44:13.314Z,23.01
2022-08-19T21:46:41.400Z,22.94
2022-08-19T21:49:09.588Z,22.87
2022-08-19T21:51:38.500Z,22.82
2022-08-19T21:54:07.174Z,22.77
2022-08-19T21:56:42.371Z,22.72
2022-08-19T21:59:10.652Z,22.68
2022-08-19T22:01:38.855Z,22.63
2022-08-19T22:04:07.053Z,22.60
2022-08-19T22:06:35.628Z,22.56
2022-08-19T22:09:03.818Z,22.53
2022-08-19T22:11:32.436Z,22.49
2022-08-19T22:14:00.589Z,22.47
2022-08-19T22:16:32.847Z,22.44
2022-08-19T22:19:00.972Z,22.41
2022-08-19T22:21:40.271Z,22.37
2022-08-19T22:24:10.151Z,22.32
2022-08-19T22:26:39.742Z,22.29
2022-08-19T22:29:08.443Z,22.26
2022-08-19T22:31:39.798Z,22.22
2022-08-19T22:34:08.024Z,22.19
2022-08-19T22:36:36.403Z,22.17
2022-08-19T22:39:07.731Z,22.13
2022-08-19T22:41:35.995Z,22.09
2022-08-19T22:44:04.398Z,22.04
2022-08-19T22:46:33.773Z,21.99
2022-08-19T22:49:01.962Z,21.95
2022-08-19T22:51:48.872Z,21.91
2022-08-19T22:54:17.099Z,21.88
2022-08-19T22:56:45.874Z,21.85
2022-08-19T22:59:14.162Z,21.86
2022-08-19T23:01:42.322Z,21.87
2022-08-19T23:04:10.751Z,21.87
2022-08-19T23:06:41.867Z,21.84
2022-08-19T23:09:10.878Z,21.81
2022-08-19T23:11:45.466Z,21.79
2022-08-19T23:14:15.466Z,21.77
2022-08-19T23:16:50.541Z,21.75
2022-08-19T23:19:20.677Z,21.74
2022-08-19T23:21:49.339Z,21.73
2022-08-19T23:24:17.514Z,21.71
2022-08-19T23:27:04.775Z,21.67
2022-08-19T23:29:52.524Z,21.65
2022-08-19T23:32:22.057Z,21.63
2022-08-19T23:34:50.173Z,21.60
2022-08-19T23:37:18.505Z,21.58
2022-08-19T23:39:46.726Z,21.56
2022-08-19T23:42:14.841Z,21.54
2022-08-19T23:44:51.316Z,21.52
2022-08-19T23:47:21.018Z,21.50
2022-08-19T23:49:50.766Z,21.48
2022-08-19T23:52:19.730Z,21.47
2022-08-19T23:54:48.018Z,21.46
2022-08-19T23:57:16.156Z,21.45
2022-08-19T23:59:45.780Z,21.43
